sensor_id;sensor_type;location;lat;lon;timestamp;pressure;altitude;pressure_sealevel;temperature;humidity
23733;BME280;12047;53.450;-2.286;2023-05-23T00:02:59;102401.09;;;18.74;100.00
23733;BME280;12047;53.450;-2.286;2023-05-23T00:08:00;102406.53;;;18.54;100.00
23733;BME280;12047;53.450;-2.286;2023-05-23T00:13:00;102408.38;;;18.81;100.00
23733;BME280;12047;53.450;-2.286;2023-05-23T00:18:01;102416.22;;;18.92;100.00
23733;BME280;12047;53.450;-2.286;2023-05-23T00:23:03;102417.38;;;18.90;100.00
23733;BME280;12047;53.450;-2.286;2023-05-23T00:28:04;102415.22;;;18.76;100.00
23733;BME280;12047;53.450;-2.286;2023-05-23T00:33:04;102407.91;;;18.68;100.00
23733;BME280;12047;53.450;-2.286;2023-05-23T00:38:05;102406.34;;;19.11;100.00
23733;BME280;12047;53.450;-2.286;2023-05-23T00:43:06;102405.63;;;18.73;100.00
23733;BME280;12047;53.450;-2.286;2023-05-23T00:48:10;102401.47;;;18.51;100.00
23733;BME280;12047;53.450;-2.286;2023-05-23T00:53:12;102404.63;;;18.74;100.00
23733;BME280;12047;53.450;-2.286;2023-05-23T00:58:13;102403.63;;;18.75;100.00
23733;BME280;12047;53.450;-2.286;2023-05-23T01:03:15;102408.53;;;18.52;100.00
23733;BME280;12047;53.450;-2.286;2023-05-23T01:08:17;102400.66;;;18.96;100.00
23733;BME280;12047;53.450;-2.286;2023-05-23T01:13:26;102410.97;;;19.00;100.00
23733;BME280;12047;53.450;-2.286;2023-05-23T01:24:29;102414.78;;;18.43;100.00
23733;BME280;12047;53.450;-2.286;2023-05-23T01:29:28;102418.59;;;18.78;100.00
23733;BME280;12047;53.450;-2.286;2023-05-23T01:34:33;102422.19;;;18.59;100.00
23733;BME280;12047;53.450;-2.286;2023-05-23T01:39:34;102428.41;;;18.87;100.00
23733;BME280;12047;53.450;-2.286;2023-05-23T01:44:35;102429.84;;;18.17;100.00
23733;BME280;12047;53.450;-2.286;2023-05-23T01:49:36;102433.13;;;18.48;100.00
23733;BME280;12047;53.450;-2.286;2023-05-23T01:54:38;102446.44;;;18.40;100.00
23733;BME280;12047;53.450;-2.286;2023-05-23T01:59:41;102445.66;;;18.10;100.00
23733;BME280;12047;53.450;-2.286;2023-05-23T02:04:42;102450.88;;;18.21;100.00
23733;BME280;12047;53.450;-2.286;2023-05-23T02:09:42;102449.94;;;17.93;100.00
23733;BME280;12047;53.450;-2.286;2023-05-23T02:14:42;102447.13;;;17.95;100.00
23733;BME280;12047;53.450;-2.286;2023-05-23T02:19:43;102461.41;;;18.42;100.00
23733;BME280;12047;53.450;-2.286;2023-05-23T02:24:44;102460.69;;;17.64;100.00
23733;BME280;12047;53.450;-2.286;2023-05-23T02:29:45;102452.53;;;17.66;100.00
23733;BME280;12047;53.450;-2.286;2023-05-23T02:34:46;102448.41;;;18.38;100.00
23733;BME280;12047;53.450;-2.286;2023-05-23T02:39:49;102444.72;;;17.92;100.00
23733;BME280;12047;53.450;-2.286;2023-05-23T02:44:49;102450.94;;;17.83;100.00
23733;BME280;12047;53.450;-2.286;2023-05-23T02:49:50;102451.16;;;18.18;100.00
23733;BME280;12047;53.450;-2.286;2023-05-23T02:54:50;102432.72;;;17.86;100.00
23733;BME280;12047;53.450;-2.286;2023-05-23T02:59:51;102436.88;;;18.27;100.00
23733;BME280;12047;53.450;-2.286;2023-05-23T03:04:51;102438.69;;;17.51;100.00
23733;BME280;12047;53.450;-2.286;2023-05-23T03:09:52;102442.47;;;18.44;100.00
23733;BME280;12047;53.450;-2.286;2023-05-23T03:14:52;102442.53;;;18.24;100.00
23733;BME280;12047;53.450;-2.286;2023-05-23T03:19:52;102446.28;;;18.04;100.00
23733;BME280;12047;53.450;-2.286;2023-05-23T03:24:53;102456.28;;;18.49;100.00
23733;BME280;12047;53.450;-2.286;2023-05-23T03:29:53;102443.53;;;18.60;100.00
23733;BME280;12047;53.450;-2.286;2023-05-23T03:34:54;102442.47;;;18.34;100.00
23733;BME280;12047;53.450;-2.286;2023-05-23T03:39:55;102440.72;;;18.62;100.00
23733;BME280;12047;53.450;-2.286;2023-05-23T03:44:55;102441.72;;;19.06;100.00
23733;BME280;12047;53.450;-2.286;2023-05-23T03:49:56;102441.91;;;19.05;100.00
23733;BME280;12047;53.450;-2.286;2023-05-23T03:54:57;102441.41;;;18.91;100.00
23733;BME280;12047;53.450;-2.286;2023-05-23T03:59:57;102438.38;;;18.77;100.00
23733;BME280;12047;53.450;-2.286;2023-05-23T04:04:57;102439.13;;;18.96;100.00
23733;BME280;12047;53.450;-2.286;2023-05-23T04:09:59;102449.66;;;18.43;100.00
23733;BME280;12047;53.450;-2.286;2023-05-23T04:15:00;102439.94;;;18.32;100.00
23733;BME280;12047;53.450;-2.286;2023-05-23T04:20:00;102454.88;;;18.54;100.00
23733;BME280;12047;53.450;-2.286;2023-05-23T04:25:01;102459.06;;;18.20;100.00
23733;BME280;12047;53.450;-2.286;2023-05-23T04:30:01;102457.00;;;17.85;100.00
23733;BME280;12047;53.450;-2.286;2023-05-23T04:35:02;102464.34;;;17.92;100.00
23733;BME280;12047;53.450;-2.286;2023-05-23T04:40:04;102451.34;;;18.44;100.00
23733;BME280;12047;53.450;-2.286;2023-05-23T04:45:05;102457.25;;;18.85;100.00
23733;BME280;12047;53.450;-2.286;2023-05-23T04:50:06;102453.59;;;18.86;100.00
23733;BME280;12047;53.450;-2.286;2023-05-23T04:55:07;102463.56;;;19.21;100.00
23733;BME280;12047;53.450;-2.286;2023-05-23T05:00:08;102459.69;;;19.06;100.00
23733;BME280;12047;53.450;-2.286;2023-05-23T05:05:12;102460.13;;;18.36;100.00
23733;BME280;12047;53.450;-2.286;2023-05-23T05:10:13;102460.78;;;19.13;100.00
23733;BME280;12047;53.450;-2.286;2023-05-23T05:15:16;102471.88;;;19.27;100.00
23733;BME280;12047;53.450;-2.286;2023-05-23T05:20:17;102460.03;;;19.38;100.00
23733;BME280;12047;53.450;-2.286;2023-05-23T05:25:17;102462.50;;;19.49;100.00
23733;BME280;12047;53.450;-2.286;2023-05-23T05:30:18;102467.78;;;19.41;100.00
23733;BME280;12047;53.450;-2.286;2023-05-23T05:35:18;102472.28;;;19.50;100.00
23733;BME280;12047;53.450;-2.286;2023-05-23T05:40:19;102473.22;;;19.31;100.00
23733;BME280;12047;53.450;-2.286;2023-05-23T05:45:21;102470.88;;;19.64;100.00
23733;BME280;12047;53.450;-2.286;2023-05-23T05:50:22;102464.59;;;19.55;100.00
23733;BME280;12047;53.450;-2.286;2023-05-23T05:55:22;102481.50;;;19.65;100.00
23733;BME280;12047;53.450;-2.286;2023-05-23T06:00:23;102462.97;;;19.45;100.00
23733;BME280;12047;53.450;-2.286;2023-05-23T06:05:24;102465.94;;;19.24;100.00
23733;BME280;12047;53.450;-2.286;2023-05-23T06:10:25;102475.28;;;19.65;100.00
23733;BME280;12047;53.450;-2.286;2023-05-23T06:15:26;102479.06;;;19.98;100.00
23733;BME280;12047;53.450;-2.286;2023-05-23T06:20:26;102476.41;;;19.45;100.00
23733;BME280;12047;53.450;-2.286;2023-05-23T06:25:27;102466.66;;;19.61;100.00
23733;BME280;12047;53.450;-2.286;2023-05-23T06:30:28;102447.19;;;19.14;100.00
23733;BME280;12047;53.450;-2.286;2023-05-23T06:35:28;102456.22;;;19.58;100.00
23733;BME280;12047;53.450;-2.286;2023-05-23T06:40:29;102451.88;;;20.01;100.00
23733;BME280;12047;53.450;-2.286;2023-05-23T06:45:30;102460.97;;;19.64;100.00
23733;BME280;12047;53.450;-2.286;2023-05-23T06:50:30;102463.28;;;19.77;100.00
23733;BME280;12047;53.450;-2.286;2023-05-23T06:55:31;102462.56;;;20.79;100.00
23733;BME280;12047;53.450;-2.286;2023-05-23T07:00:33;102474.91;;;20.29;100.00
23733;BME280;12047;53.450;-2.286;2023-05-23T07:05:33;102479.09;;;20.50;100.00
23733;BME280;12047;53.450;-2.286;2023-05-23T07:10:35;102473.75;;;20.58;100.00
23733;BME280;12047;53.450;-2.286;2023-05-23T07:15:38;102482.13;;;20.89;100.00
23733;BME280;12047;53.450;-2.286;2023-05-23T07:20:38;102478.97;;;20.33;100.00
23733;BME280;12047;53.450;-2.286;2023-05-23T07:25:39;102493.38;;;20.42;100.00
23733;BME280;12047;53.450;-2.286;2023-05-23T07:30:41;102512.06;;;20.44;100.00
23733;BME280;12047;53.450;-2.286;2023-05-23T07:35:42;102499.94;;;20.74;100.00
23733;BME280;12047;53.450;-2.286;2023-05-23T07:40:43;102502.84;;;20.88;100.00
23733;BME280;12047;53.450;-2.286;2023-05-23T07:45:43;102506.78;;;21.10;100.00
23733;BME280;12047;53.450;-2.286;2023-05-23T07:50:44;102501.34;;;20.60;100.00
23733;BME280;12047;53.450;-2.286;2023-05-23T07:55:45;102500.00;;;19.68;100.00
23733;BME280;12047;53.450;-2.286;2023-05-23T08:00:45;102478.13;;;20.59;100.00
23733;BME280;12047;53.450;-2.286;2023-05-23T08:05:46;102480.13;;;20.91;100.00
23733;BME280;12047;53.450;-2.286;2023-05-23T08:10:46;102486.34;;;21.25;100.00
23733;BME280;12047;53.450;-2.286;2023-05-23T08:15:47;102486.72;;;21.04;100.00
23733;BME280;12047;53.450;-2.286;2023-05-23T08:20:47;102478.66;;;20.62;100.00
23733;BME280;12047;53.450;-2.286;2023-05-23T08:25:48;102483.31;;;21.36;100.00
23733;BME280;12047;53.450;-2.286;2023-05-23T08:30:49;102485.53;;;21.82;100.00
23733;BME280;12047;53.450;-2.286;2023-05-23T08:35:49;102487.91;;;21.77;100.00
23733;BME280;12047;53.450;-2.286;2023-05-23T08:40:50;102490.25;;;21.47;100.00
23733;BME280;12047;53.450;-2.286;2023-05-23T08:45:53;102487.88;;;21.85;100.00
23733;BME280;12047;53.450;-2.286;2023-05-23T08:50:54;102480.97;;;21.98;100.00
23733;BME280;12047;53.450;-2.286;2023-05-23T08:55:55;102479.97;;;22.16;100.00
23733;BME280;12047;53.450;-2.286;2023-05-23T09:00:58;102477.28;;;21.67;99.08
23733;BME280;12047;53.450;-2.286;2023-05-23T09:05:59;102477.44;;;22.22;100.00
23733;BME280;12047;53.450;-2.286;2023-05-23T09:11:01;102479.25;;;22.85;98.45
23733;BME280;12047;53.450;-2.286;2023-05-23T09:16:07;102471.28;;;22.45;100.00
23733;BME280;12047;53.450;-2.286;2023-05-23T09:21:10;102474.56;;;23.10;100.00
23733;BME280;12047;53.450;-2.286;2023-05-23T09:26:11;102474.19;;;22.90;100.00
23733;BME280;12047;53.450;-2.286;2023-05-23T09:31:14;102474.09;;;22.59;99.21
23733;BME280;12047;53.450;-2.286;2023-05-23T09:36:16;102481.81;;;22.15;100.00
23733;BME280;12047;53.450;-2.286;2023-05-23T09:41:19;102476.91;;;22.27;100.00
23733;BME280;12047;53.450;-2.286;2023-05-23T09:46:20;102480.81;;;21.67;100.00
23733;BME280;12047;53.450;-2.286;2023-05-23T09:51:22;102480.41;;;22.52;100.00
23733;BME280;12047;53.450;-2.286;2023-05-23T09:56:23;102472.19;;;23.38;100.00
23733;BME280;12047;53.450;-2.286;2023-05-23T10:01:26;102475.63;;;23.32;100.00
23733;BME280;12047;53.450;-2.286;2023-05-23T10:06:36;102463.69;;;22.48;100.00
23733;BME280;12047;53.450;-2.286;2023-05-23T10:12:20;102464.63;;;23.33;100.00
23733;BME280;12047;53.450;-2.286;2023-05-23T10:17:37;102456.44;;;23.19;100.00
23733;BME280;12047;53.450;-2.286;2023-05-23T10:22:39;102451.22;;;22.86;100.00
23733;BME280;12047;53.450;-2.286;2023-05-23T10:27:42;102464.59;;;22.80;100.00
23733;BME280;12047;53.450;-2.286;2023-05-23T10:32:42;102445.22;;;22.60;100.00
23733;BME280;12047;53.450;-2.286;2023-05-23T10:48:34;102457.53;;;23.32;100.00
23733;BME280;12047;53.450;-2.286;2023-05-23T10:58:40;102454.06;;;23.47;92.67
23733;BME280;12047;53.450;-2.286;2023-05-23T11:08:47;102448.13;;;23.89;94.37
23733;BME280;12047;53.450;-2.286;2023-05-23T11:13:57;102450.69;;;23.67;97.37
23733;BME280;12047;53.450;-2.286;2023-05-23T11:24:18;102453.53;;;24.41;95.31
23733;BME280;12047;53.450;-2.286;2023-05-23T11:29:19;102453.16;;;24.29;93.35
23733;BME280;12047;53.450;-2.286;2023-05-23T11:34:20;102439.88;;;24.64;91.29
23733;BME280;12047;53.450;-2.286;2023-05-23T11:39:21;102442.06;;;24.01;91.51
23733;BME280;12047;53.450;-2.286;2023-05-23T11:44:22;102444.38;;;24.27;92.51
23733;BME280;12047;53.450;-2.286;2023-05-23T11:49:23;102449.50;;;24.37;92.02
23733;BME280;12047;53.450;-2.286;2023-05-23T11:54:27;102444.72;;;24.98;90.68
23733;BME280;12047;53.450;-2.286;2023-05-23T11:59:31;102438.69;;;25.02;89.23
23733;BME280;12047;53.450;-2.286;2023-05-23T12:04:33;102436.91;;;25.09;87.50
23733;BME280;12047;53.450;-2.286;2023-05-23T12:09:43;102440.19;;;23.87;89.93
23733;BME280;12047;53.450;-2.286;2023-05-23T12:14:44;102443.84;;;23.57;88.76
23733;BME280;12047;53.450;-2.286;2023-05-23T12:19:48;102440.31;;;24.08;89.20
23733;BME280;12047;53.450;-2.286;2023-05-23T12:24:52;102442.31;;;23.08;86.91
23733;BME280;12047;53.450;-2.286;2023-05-23T12:30:07;102437.72;;;23.63;87.44
23733;BME280;12047;53.450;-2.286;2023-05-23T12:35:10;102437.34;;;23.66;87.18
23733;BME280;12047;53.450;-2.286;2023-05-23T12:40:16;102432.59;;;24.20;86.66
23733;BME280;12047;53.450;-2.286;2023-05-23T12:45:18;102429.09;;;24.85;88.17
23733;BME280;12047;53.450;-2.286;2023-05-23T12:50:19;102425.94;;;25.18;87.73
23733;BME280;12047;53.450;-2.286;2023-05-23T12:55:20;102425.19;;;23.99;83.05
23733;BME280;12047;53.450;-2.286;2023-05-23T13:00:20;102430.97;;;24.11;84.01
23733;BME280;12047;53.450;-2.286;2023-05-23T13:05:21;102425.78;;;24.39;82.83
23733;BME280;12047;53.450;-2.286;2023-05-23T13:10:21;102434.66;;;24.33;82.55
23733;BME280;12047;53.450;-2.286;2023-05-23T13:15:22;102435.31;;;24.35;77.98
23733;BME280;12047;53.450;-2.286;2023-05-23T13:20:23;102424.19;;;24.45;79.26
23733;BME280;12047;53.450;-2.286;2023-05-23T13:25:24;102423.63;;;24.34;75.18
23733;BME280;12047;53.450;-2.286;2023-05-23T13:30:25;102440.38;;;24.00;70.23
23733;BME280;12047;53.450;-2.286;2023-05-23T13:35:26;102422.28;;;24.01;67.86
23733;BME280;12047;53.450;-2.286;2023-05-23T13:40:26;102420.44;;;23.41;65.55
23733;BME280;12047;53.450;-2.286;2023-05-23T13:45:27;102413.19;;;24.46;66.46
23733;BME280;12047;53.450;-2.286;2023-05-23T13:50:27;102422.41;;;24.22;63.87
23733;BME280;12047;53.450;-2.286;2023-05-23T13:55:28;102418.03;;;23.69;60.46
23733;BME280;12047;53.450;-2.286;2023-05-23T14:00:28;102411.56;;;24.52;60.94
23733;BME280;12047;53.450;-2.286;2023-05-23T14:11:06;102408.16;;;24.79;59.97
23733;BME280;12047;53.450;-2.286;2023-05-23T14:16:07;102405.47;;;24.64;60.97
23733;BME280;12047;53.450;-2.286;2023-05-23T14:21:07;102402.72;;;25.36;60.97
23733;BME280;12047;53.450;-2.286;2023-05-23T14:26:08;102406.59;;;24.55;60.80
23733;BME280;12047;53.450;-2.286;2023-05-23T14:31:08;102403.44;;;24.52;59.33
23733;BME280;12047;53.450;-2.286;2023-05-23T14:36:09;102399.31;;;24.56;59.38
23733;BME280;12047;53.450;-2.286;2023-05-23T14:41:12;102406.69;;;24.62;60.34
23733;BME280;12047;53.450;-2.286;2023-05-23T14:46:12;102405.91;;;23.80;54.91
23733;BME280;12047;53.450;-2.286;2023-05-23T14:51:14;102406.84;;;24.75;57.09
23733;BME280;12047;53.450;-2.286;2023-05-23T14:56:15;102410.06;;;25.00;56.28
23733;BME280;12047;53.450;-2.286;2023-05-23T15:01:15;102396.75;;;25.20;56.56
23733;BME280;12047;53.450;-2.286;2023-05-23T15:06:18;102407.31;;;24.79;54.69
23733;BME280;12047;53.450;-2.286;2023-05-23T15:11:19;102404.13;;;24.39;57.84
23733;BME280;12047;53.450;-2.286;2023-05-23T15:16:19;102413.63;;;24.35;56.25
23733;BME280;12047;53.450;-2.286;2023-05-23T15:21:20;102422.97;;;23.65;57.82
23733;BME280;12047;53.450;-2.286;2023-05-23T15:26:21;102411.44;;;23.71;57.03
23733;BME280;12047;53.450;-2.286;2023-05-23T15:31:21;102412.63;;;23.69;58.17
23733;BME280;12047;53.450;-2.286;2023-05-23T15:36:22;102412.97;;;24.18;58.95
23733;BME280;12047;53.450;-2.286;2023-05-23T15:41:22;102406.16;;;24.22;62.25
23733;BME280;12047;53.450;-2.286;2023-05-23T15:46:23;102400.44;;;24.02;64.57
23733;BME280;12047;53.450;-2.286;2023-05-23T15:51:26;102419.31;;;23.58;60.00
23733;BME280;12047;53.450;-2.286;2023-05-23T15:56:27;102418.22;;;23.22;58.08
23733;BME280;12047;53.450;-2.286;2023-05-23T16:01:27;102415.00;;;23.87;60.66
23733;BME280;12047;53.450;-2.286;2023-05-23T16:06:28;102418.38;;;24.18;59.06
23733;BME280;12047;53.450;-2.286;2023-05-23T16:11:29;102429.41;;;23.64;59.05
23733;BME280;12047;53.450;-2.286;2023-05-23T16:16:29;102411.78;;;24.35;60.31
23733;BME280;12047;53.450;-2.286;2023-05-23T16:21:30;102427.84;;;23.47;57.98
23733;BME280;12047;53.450;-2.286;2023-05-23T16:26:31;102432.22;;;24.23;56.83
23733;BME280;12047;53.450;-2.286;2023-05-23T16:31:32;102438.22;;;23.13;58.98
23733;BME280;12047;53.450;-2.286;2023-05-23T16:36:32;102420.38;;;23.72;60.86
23733;BME280;12047;53.450;-2.286;2023-05-23T16:41:33;102420.84;;;22.76;62.48
23733;BME280;12047;53.450;-2.286;2023-05-23T16:46:33;102411.94;;;22.67;62.18
23733;BME280;12047;53.450;-2.286;2023-05-23T16:51:34;102415.88;;;22.96;64.51
23733;BME280;12047;53.450;-2.286;2023-05-23T16:56:34;102411.34;;;23.34;66.18
23733;BME280;12047;53.450;-2.286;2023-05-23T17:01:38;102412.13;;;22.19;64.96
23733;BME280;12047;53.450;-2.286;2023-05-23T17:06:38;102402.25;;;21.70;63.44
23733;BME280;12047;53.450;-2.286;2023-05-23T17:11:39;102397.53;;;22.44;68.13
23733;BME280;12047;53.450;-2.286;2023-05-23T17:16:39;102412.72;;;22.37;72.06
23733;BME280;12047;53.450;-2.286;2023-05-23T17:21:40;102404.56;;;22.06;70.59
23733;BME280;12047;53.450;-2.286;2023-05-23T17:26:40;102398.78;;;22.17;72.55
23733;BME280;12047;53.450;-2.286;2023-05-23T17:31:41;102392.13;;;21.40;74.50
23733;BME280;12047;53.450;-2.286;2023-05-23T17:36:41;102388.19;;;21.91;77.58
23733;BME280;12047;53.450;-2.286;2023-05-23T17:41:42;102395.25;;;22.17;78.51
23733;BME280;12047;53.450;-2.286;2023-05-23T17:46:42;102388.38;;;21.17;76.16
23733;BME280;12047;53.450;-2.286;2023-05-23T17:51:43;102385.91;;;21.48;76.86
23733;BME280;12047;53.450;-2.286;2023-05-23T17:56:43;102391.78;;;21.35;72.09
23733;BME280;12047;53.450;-2.286;2023-05-23T18:01:44;102386.03;;;21.62;70.02
23733;BME280;12047;53.450;-2.286;2023-05-23T18:06:45;102372.19;;;21.09;70.41
23733;BME280;12047;53.450;-2.286;2023-05-23T18:11:45;102373.72;;;21.19;68.25
23733;BME280;12047;53.450;-2.286;2023-05-23T18:16:46;102369.72;;;20.57;70.22
23733;BME280;12047;53.450;-2.286;2023-05-23T18:21:46;102388.41;;;20.58;73.23
23733;BME280;12047;53.450;-2.286;2023-05-23T18:26:47;102397.81;;;20.20;76.70
23733;BME280;12047;53.450;-2.286;2023-05-23T18:31:47;102398.97;;;19.92;80.05
23733;BME280;12047;53.450;-2.286;2023-05-23T18:36:48;102404.97;;;20.12;81.91
23733;BME280;12047;53.450;-2.286;2023-05-23T18:41:48;102412.56;;;19.47;86.09
23733;BME280;12047;53.450;-2.286;2023-05-23T18:46:49;102413.94;;;19.68;89.90
23733;BME280;12047;53.450;-2.286;2023-05-23T18:51:49;102416.03;;;19.57;91.17
23733;BME280;12047;53.450;-2.286;2023-05-23T18:56:53;102416.56;;;20.04;91.28
23733;BME280;12047;53.450;-2.286;2023-05-23T19:01:53;102428.22;;;19.16;95.56
23733;BME280;12047;53.450;-2.286;2023-05-23T19:06:55;102417.41;;;19.43;97.16
23733;BME280;12047;53.450;-2.286;2023-05-23T19:11:55;102419.66;;;19.30;97.09
23733;BME280;12047;53.450;-2.286;2023-05-23T19:16:56;102424.78;;;19.77;95.71
23733;BME280;12047;53.450;-2.286;2023-05-23T19:21:57;102431.63;;;19.71;95.86
23733;BME280;12047;53.450;-2.286;2023-05-23T19:26:58;102421.25;;;19.76;97.12
23733;BME280;12047;53.450;-2.286;2023-05-23T19:31:59;102432.75;;;19.33;100.00
23733;BME280;12047;53.450;-2.286;2023-05-23T19:37:00;102424.25;;;19.99;98.71
23733;BME280;12047;53.450;-2.286;2023-05-23T19:42:00;102429.56;;;19.29;100.00
23733;BME280;12047;53.450;-2.286;2023-05-23T19:47:01;102431.94;;;19.68;100.00
23733;BME280;12047;53.450;-2.286;2023-05-23T19:52:02;102438.59;;;19.11;100.00
23733;BME280;12047;53.450;-2.286;2023-05-23T19:57:02;102437.81;;;19.89;100.00
23733;BME280;12047;53.450;-2.286;2023-05-23T20:02:04;102432.81;;;20.20;100.00
23733;BME280;12047;53.450;-2.286;2023-05-23T20:07:04;102431.41;;;19.64;100.00
23733;BME280;12047;53.450;-2.286;2023-05-23T20:12:06;102429.72;;;19.63;100.00
23733;BME280;12047;53.450;-2.286;2023-05-23T20:17:06;102417.03;;;19.99;100.00
23733;BME280;12047;53.450;-2.286;2023-05-23T20:22:07;102423.09;;;19.58;100.00
23733;BME280;12047;53.450;-2.286;2023-05-23T20:27:08;102431.84;;;19.60;100.00
23733;BME280;12047;53.450;-2.286;2023-05-23T20:32:09;102432.84;;;19.77;100.00
23733;BME280;12047;53.450;-2.286;2023-05-23T20:37:09;102446.53;;;19.65;100.00
23733;BME280;12047;53.450;-2.286;2023-05-23T20:42:12;102452.06;;;19.46;100.00
23733;BME280;12047;53.450;-2.286;2023-05-23T20:47:14;102440.56;;;19.80;100.00
23733;BME280;12047;53.450;-2.286;2023-05-23T20:52:14;102448.63;;;19.54;100.00
23733;BME280;12047;53.450;-2.286;2023-05-23T20:57:15;102460.44;;;19.61;100.00
23733;BME280;12047;53.450;-2.286;2023-05-23T21:02:15;102446.53;;;19.65;100.00
23733;BME280;12047;53.450;-2.286;2023-05-23T21:07:16;102449.25;;;19.02;100.00
23733;BME280;12047;53.450;-2.286;2023-05-23T21:12:16;102443.59;;;19.59;100.00
23733;BME280;12047;53.450;-2.286;2023-05-23T21:17:17;102441.22;;;19.02;100.00
23733;BME280;12047;53.450;-2.286;2023-05-23T21:22:20;102439.78;;;19.61;100.00
23733;BME280;12047;53.450;-2.286;2023-05-23T21:27:21;102446.88;;;19.17;100.00
23733;BME280;12047;53.450;-2.286;2023-05-23T21:32:21;102449.06;;;19.49;100.00
23733;BME280;12047;53.450;-2.286;2023-05-23T21:37:22;102441.91;;;18.77;100.00
23733;BME280;12047;53.450;-2.286;2023-05-23T21:42:22;102451.34;;;18.81;100.00
23733;BME280;12047;53.450;-2.286;2023-05-23T21:47:24;102454.16;;;19.07;100.00
23733;BME280;12047;53.450;-2.286;2023-05-23T21:52:25;102454.28;;;18.88;100.00
23733;BME280;12047;53.450;-2.286;2023-05-23T21:57:25;102461.63;;;19.13;100.00
23733;BME280;12047;53.450;-2.286;2023-05-23T22:02:26;102467.63;;;19.43;100.00
23733;BME280;12047;53.450;-2.286;2023-05-23T22:07:26;102456.59;;;18.46;100.00
23733;BME280;12047;53.450;-2.286;2023-05-23T22:12:27;102454.25;;;19.15;100.00
23733;BME280;12047;53.450;-2.286;2023-05-23T22:17:27;102437.44;;;18.95;100.00
23733;BME280;12047;53.450;-2.286;2023-05-23T22:22:28;102427.09;;;18.36;100.00
23733;BME280;12047;53.450;-2.286;2023-05-23T22:27:29;102433.66;;;18.61;100.00
23733;BME280;12047;53.450;-2.286;2023-05-23T22:32:29;102429.41;;;18.21;100.00
23733;BME280;12047;53.450;-2.286;2023-05-23T22:37:30;102425.81;;;18.40;100.00
23733;BME280;12047;53.450;-2.286;2023-05-23T22:42:30;102422.09;;;18.51;100.00
23733;BME280;12047;53.450;-2.286;2023-05-23T22:47:30;102423.00;;;18.32;100.00
23733;BME280;12047;53.450;-2.286;2023-05-23T22:52:31;102420.59;;;17.63;100.00
23733;BME280;12047;53.450;-2.286;2023-05-23T22:57:33;102410.53;;;18.41;100.00
23733;BME280;12047;53.450;-2.286;2023-05-23T23:02:34;102417.09;;;18.28;100.00
23733;BME280;12047;53.450;-2.286;2023-05-23T23:07:34;102411.50;;;18.12;100.00
23733;BME280;12047;53.450;-2.286;2023-05-23T23:12:35;102411.03;;;18.26;100.00
23733;BME280;12047;53.450;-2.286;2023-05-23T23:17:35;102409.53;;;18.51;100.00
23733;BME280;12047;53.450;-2.286;2023-05-23T23:22:36;102405.28;;;18.12;100.00
23733;BME280;12047;53.450;-2.286;2023-05-23T23:27:37;102404.25;;;17.66;100.00
23733;BME280;12047;53.450;-2.286;2023-05-23T23:32:38;102404.34;;;18.03;100.00
23733;BME280;12047;53.450;-2.286;2023-05-23T23:37:38;102405.25;;;17.55;100.00
23733;BME280;12047;53.450;-2.286;2023-05-23T23:42:39;102405.09;;;17.66;100.00
23733;BME280;12047;53.450;-2.286;2023-05-23T23:47:40;102410.84;;;18.00;100.00
23733;BME280;12047;53.450;-2.286;2023-05-23T23:52:41;102409.19;;;17.51;100.00
23733;BME280;12047;53.450;-2.286;2023-05-23T23:57:42;102410.44;;;17.86;100.00
